createdAt,value
2023-05-14T00:00:18.290Z,55.8956
2023-05-14T00:01:20.010Z,55.8810
2023-05-14T00:02:21.636Z,55.9888
2023-05-14T00:03:23.361Z,56.1360
2023-05-14T00:04:24.895Z,56.1291
2023-05-14T00:05:26.563Z,56.0347
2023-05-14T00:06:28.180Z,55.9787
2023-05-14T00:07:30.273Z,55.9792
2023-05-14T00:08:31.460Z,55.8908
2023-05-14T00:09:33.158Z,55.8740
2023-05-14T00:10:34.766Z,55.9395
2023-05-14T00:11:36.445Z,56.1032
2023-05-14T00:12:38.070Z,56.2426
2023-05-14T00:13:39.701Z,56.3074
2023-05-14T00:14:41.366Z,56.2446
2023-05-14T00:15:43.017Z,56.1861
2023-05-14T00:16:44.629Z,56.1651
2023-05-14T00:17:46.380Z,56.0694
2023-05-14T00:18:47.916Z,56.0530
2023-05-14T00:19:49.571Z,56.1579
2023-05-14T00:20:51.728Z,56.2534
2023-05-14T00:21:52.832Z,56.3511
2023-05-14T00:22:54.539Z,56.3674
2023-05-14T00:23:56.159Z,56.3320
2023-05-14T00:24:57.822Z,56.1996
2023-05-14T00:25:59.426Z,56.1860
2023-05-14T00:27:01.079Z,56.0643
2023-05-14T00:28:02.744Z,56.1003
2023-05-14T00:29:04.331Z,56.2433
2023-05-14T00:30:06.113Z,56.3782
2023-05-14T00:31:07.697Z,56.3859
2023-05-14T00:32:09.258Z,56.3144
2023-05-14T00:33:10.998Z,56.2347
2023-05-14T00:34:12.568Z,56.1711
2023-05-14T00:35:14.251Z,56.1897
2023-05-14T00:36:15.847Z,56.3058
2023-05-14T00:37:17.536Z,56.4995
2023-05-14T00:38:19.278Z,56.4211
2023-05-14T00:39:20.754Z,56.3301
2023-05-14T00:40:22.871Z,56.2165
2023-05-14T00:41:24.065Z,56.1557
2023-05-14T00:42:25.724Z,56.1820
2023-05-14T00:43:27.386Z,56.3359
2023-05-14T00:44:29.089Z,56.4777
2023-05-14T00:45:30.637Z,56.6017
2023-05-14T00:46:32.324Z,56.5816
2023-05-14T00:47:34.030Z,56.5443
2023-05-14T00:48:35.623Z,56.4441
2023-05-14T00:49:37.248Z,56.3904
2023-05-14T00:50:38.970Z,56.2610
2023-05-14T00:51:40.524Z,56.2944
2023-05-14T00:52:42.255Z,56.4292
2023-05-14T00:53:43.859Z,56.5531
2023-05-14T00:54:45.556Z,56.6412
2023-05-14T00:55:47.027Z,56.5865
2023-05-14T00:56:48.754Z,56.5504
2023-05-14T00:57:50.317Z,56.4575
2023-05-14T00:58:52.996Z,56.4149
2023-05-14T00:59:53.753Z,56.5001
2023-05-14T01:00:55.291Z,56.6747
2023-05-14T01:01:56.922Z,56.7085
2023-05-14T01:02:58.701Z,56.5984
2023-05-14T01:04:00.290Z,56.5196
2023-05-14T01:05:02.319Z,56.4481
2023-05-14T01:06:03.495Z,56.4526
2023-05-14T01:07:05.139Z,56.5700
2023-05-14T01:08:06.770Z,56.6885
2023-05-14T01:09:08.431Z,56.7208
2023-05-14T01:10:11.044Z,56.6136
2023-05-14T01:11:11.753Z,56.4921
2023-05-14T01:12:13.355Z,56.4252
2023-05-14T01:13:14.968Z,56.5144
2023-05-14T01:14:17.108Z,56.6592
2023-05-14T01:15:18.613Z,56.6875
2023-05-14T01:16:20.774Z,56.7159
2023-05-14T01:17:21.534Z,56.5959
2023-05-14T01:18:23.218Z,56.5315
2023-05-14T01:19:24.915Z,56.5426
2023-05-14T01:20:26.639Z,56.6806
2023-05-14T01:21:28.201Z,56.8068
2023-05-14T01:22:29.919Z,56.9210
2023-05-14T01:23:31.398Z,56.8727
2023-05-14T01:24:33.085Z,56.7747
2023-05-14T01:25:34.789Z,56.6728
2023-05-14T01:26:36.472Z,56.6636
2023-05-14T01:27:38.704Z,56.7064
2023-05-14T01:28:39.794Z,56.8355
2023-05-14T01:29:41.317Z,56.9706
2023-05-14T01:30:43.355Z,56.9351
2023-05-14T01:31:44.651Z,56.8219
2023-05-14T01:32:46.322Z,56.8155
2023-05-14T01:33:47.889Z,56.7951
2023-05-14T01:34:49.542Z,56.9469
2023-05-14T01:35:51.251Z,57.1053
2023-05-14T01:36:53.263Z,57.0820
2023-05-14T01:37:54.502Z,56.9270
2023-05-14T01:38:56.109Z,56.8127
2023-05-14T01:39:57.798Z,56.7324
2023-05-14T01:40:59.426Z,56.8383
2023-05-14T01:42:01.318Z,56.8864
2023-05-14T01:43:02.759Z,56.8841
2023-05-14T01:44:04.485Z,56.9068
2023-05-14T01:45:05.973Z,56.8897
2023-05-14T01:46:07.669Z,56.8747
2023-05-14T01:47:09.800Z,56.7828
2023-05-14T01:48:11.140Z,56.6474
2023-05-14T01:49:12.542Z,56.6986
2023-05-14T01:50:14.241Z,56.8733
2023-05-14T01:51:15.861Z,56.9829
2023-05-14T01:52:17.814Z,56.9794
2023-05-14T01:53:19.216Z,56.8234
2023-05-14T01:54:20.824Z,56.7695
2023-05-14T01:55:22.451Z,56.7980
2023-05-14T01:56:24.119Z,56.9751
2023-05-14T01:57:25.796Z,57.0193
2023-05-14T01:58:27.386Z,56.9605
2023-05-14T01:59:29.104Z,56.9300
2023-05-14T02:00:30.613Z,56.8762
2023-05-14T02:01:33.325Z,56.8108
2023-05-14T02:02:33.969Z,56.8533
2023-05-14T02:03:35.576Z,56.8643
2023-05-14T02:04:37.203Z,56.9837
2023-05-14T02:05:38.841Z,56.9992
2023-05-14T02:06:40.710Z,56.9207
2023-05-14T02:07:42.195Z,56.7699
2023-05-14T02:08:43.752Z,56.6903
2023-05-14T02:09:45.457Z,56.5326
2023-05-14T02:10:47.048Z,56.5404
2023-05-14T02:11:48.795Z,56.6670
2023-05-14T02:12:50.386Z,56.7958
2023-05-14T02:13:52.045Z,56.8366
2023-05-14T02:14:53.639Z,56.9165
2023-05-14T02:15:55.350Z,56.9088
2023-05-14T02:16:56.949Z,56.8072
2023-05-14T02:17:58.836Z,56.6939
2023-05-14T02:19:01.281Z,56.5981
2023-05-14T02:20:01.878Z,56.5132
2023-05-14T02:21:03.549Z,56.6053
2023-05-14T02:22:05.164Z,56.7635
2023-05-14T02:23:07.761Z,56.7433
2023-05-14T02:24:08.498Z,56.7688
2023-05-14T02:25:10.080Z,56.8733
2023-05-14T02:26:11.708Z,56.8082
2023-05-14T02:27:13.395Z,56.6983
2023-05-14T02:28:15.747Z,56.6272
2023-05-14T02:29:16.678Z,56.6137
2023-05-14T02:30:18.296Z,56.6742
2023-05-14T02:31:20.068Z,56.7540
2023-05-14T02:32:21.603Z,56.7247
2023-05-14T02:33:23.375Z,56.7355
2023-05-14T02:34:25.051Z,56.7149
2023-05-14T02:35:26.542Z,56.6885
2023-05-14T02:36:28.245Z,56.6554
2023-05-14T02:37:29.824Z,56.7086
2023-05-14T02:38:31.491Z,56.6330
2023-05-14T02:39:33.077Z,56.6318
2023-05-14T02:40:34.773Z,56.6277
2023-05-14T02:41:36.346Z,56.7576
2023-05-14T02:42:38.221Z,56.7445
2023-05-14T02:43:39.641Z,56.8919
2023-05-14T02:44:41.334Z,56.7963
2023-05-14T02:45:42.968Z,56.7481
2023-05-14T02:46:44.623Z,56.7532
2023-05-14T02:47:46.384Z,56.6386
2023-05-14T02:48:48.739Z,56.5183
2023-05-14T02:49:49.526Z,56.4662
2023-05-14T02:50:51.222Z,56.4762
2023-05-14T02:51:52.799Z,56.6938
2023-05-14T02:52:54.703Z,57.1107
2023-05-14T02:53:57.196Z,57.1215
2023-05-14T02:54:58.866Z,56.7493
2023-05-14T02:55:59.622Z,56.0457
2023-05-14T02:57:01.188Z,55.3383
2023-05-14T02:58:02.863Z,54.7403
2023-05-14T02:59:04.579Z,54.0525
2023-05-14T03:00:06.151Z,53.7694
2023-05-14T03:01:07.867Z,53.6465
2023-05-14T03:02:09.407Z,53.6291
2023-05-14T03:03:11.118Z,53.5607
2023-05-14T03:04:12.688Z,53.5499
2023-05-14T03:05:14.314Z,53.5760
2023-05-14T03:06:15.995Z,53.6888
2023-05-14T03:07:17.643Z,53.7296
2023-05-14T03:08:19.329Z,53.6522
2023-05-14T03:09:20.900Z,53.6728
2023-05-14T03:10:22.686Z,53.4564
2023-05-14T03:11:24.340Z,53.4061
2023-05-14T03:12:25.821Z,53.3727
2023-05-14T03:13:27.507Z,53.4858
2023-05-14T03:14:29.146Z,53.4976
2023-05-14T03:15:30.791Z,53.5743
2023-05-14T03:16:33.379Z,53.3928
2023-05-14T03:17:34.088Z,53.2738
2023-05-14T03:18:35.836Z,53.1187
2023-05-14T03:19:37.370Z,53.1931
2023-05-14T03:20:38.932Z,53.1131
2023-05-14T03:21:40.630Z,53.2739
2023-05-14T03:22:42.235Z,53.3315
2023-05-14T03:23:43.969Z,53.4053
2023-05-14T03:24:45.538Z,53.3035
2023-05-14T03:25:47.562Z,53.0822
2023-05-14T03:26:49.208Z,53.1364
2023-05-14T03:27:50.593Z,53.0507
2023-05-14T03:28:52.100Z,53.1752
2023-05-14T03:29:53.746Z,53.1272
2023-05-14T03:30:55.745Z,53.0391
2023-05-14T03:31:57.354Z,52.9352
2023-05-14T03:32:58.990Z,52.6061
2023-05-14T03:34:00.409Z,52.7088
2023-05-14T03:35:02.017Z,53.0408
2023-05-14T03:36:03.686Z,52.9695
2023-05-14T03:37:05.266Z,52.8981
2023-05-14T03:38:07.008Z,52.8035
2023-05-14T03:39:08.648Z,52.6858
2023-05-14T03:40:10.267Z,52.6235
2023-05-14T03:41:11.864Z,52.7047
2023-05-14T03:42:13.568Z,52.8520
2023-05-14T03:43:15.160Z,52.9372
2023-05-14T03:44:16.854Z,52.8976
2023-05-14T03:45:18.558Z,52.7348
2023-05-14T03:46:20.129Z,52.5992
2023-05-14T03:47:22.064Z,52.6466
2023-05-14T03:48:23.841Z,52.7292
2023-05-14T03:49:25.067Z,52.8124
2023-05-14T03:50:26.714Z,52.8911
2023-05-14T03:51:28.304Z,52.9726
2023-05-14T03:52:30.057Z,53.1281
2023-05-14T03:53:31.659Z,53.0819
2023-05-14T03:54:33.271Z,52.9716
2023-05-14T03:55:34.862Z,52.9447
2023-05-14T03:56:36.612Z,53.1188
2023-05-14T03:57:38.198Z,53.2420
2023-05-14T03:58:39.866Z,53.2586
2023-05-14T03:59:41.465Z,53.1796
2023-05-14T04:00:43.094Z,53.0627
2023-05-14T04:01:44.923Z,53.0136
2023-05-14T04:02:46.562Z,53.0590
2023-05-14T04:03:48.580Z,53.0621
2023-05-14T04:04:49.814Z,53.0130
2023-05-14T04:05:51.878Z,52.9969
2023-05-14T04:06:53.922Z,52.9869
2023-05-14T04:07:54.593Z,53.0717
2023-05-14T04:08:56.361Z,53.0536
2023-05-14T04:09:57.921Z,53.0140
2023-05-14T04:10:59.524Z,53.0307
2023-05-14T04:12:01.186Z,52.9715
2023-05-14T04:13:02.837Z,52.9080
2023-05-14T04:14:05.367Z,52.8675
2023-05-14T04:15:06.149Z,53.0543
2023-05-14T04:16:07.835Z,53.1272
2023-05-14T04:17:09.447Z,53.0599
2023-05-14T04:18:11.029Z,53.0529
2023-05-14T04:19:12.787Z,52.9972
2023-05-14T04:20:14.348Z,53.0454
2023-05-14T04:21:16.039Z,52.9952
2023-05-14T04:22:17.612Z,52.9634
2023-05-14T04:23:19.233Z,53.2236
2023-05-14T04:24:20.908Z,53.2559
2023-05-14T04:25:22.664Z,53.1602
2023-05-14T04:26:24.165Z,53.0131
2023-05-14T04:27:25.892Z,52.9142
2023-05-14T04:28:27.516Z,52.8498
2023-05-14T04:29:29.176Z,53.2009
2023-05-14T04:30:30.889Z,53.2426
2023-05-14T04:31:33.440Z,53.1156
2023-05-14T04:32:34.088Z,52.9824
2023-05-14T04:33:35.722Z,52.8420
2023-05-14T04:34:37.342Z,52.7351
2023-05-14T04:35:39.023Z,52.7223
2023-05-14T04:36:40.639Z,53.1816
2023-05-14T04:37:42.368Z,53.4186
2023-05-14T04:38:43.994Z,53.5865
2023-05-14T04:39:45.586Z,53.5128
2023-05-14T04:40:47.227Z,53.3234
2023-05-14T04:41:48.876Z,53.1272
2023-05-14T04:42:50.580Z,52.9856
2023-05-14T04:43:52.140Z,52.8664
2023-05-14T04:44:53.811Z,52.9028
2023-05-14T04:45:55.432Z,53.2589
2023-05-14T04:46:57.136Z,53.2532
2023-05-14T04:47:58.768Z,53.0658
2023-05-14T04:49:00.361Z,52.8692
2023-05-14T04:50:02.137Z,52.7966
2023-05-14T04:51:05.634Z,53.0033
2023-05-14T04:52:05.318Z,53.0538
2023-05-14T04:53:06.985Z,52.7794
2023-05-14T04:54:08.597Z,52.0034
2023-05-14T04:55:10.287Z,51.0701
2023-05-14T04:56:11.965Z,50.1890
2023-05-14T04:57:13.597Z,49.2538
2023-05-14T04:58:15.174Z,48.4279
2023-05-14T04:59:16.904Z,47.8869
2023-05-14T05:00:19.394Z,46.9397
2023-05-14T05:01:20.177Z,45.8602
2023-05-14T05:02:21.798Z,45.0767
2023-05-14T05:03:23.408Z,44.5950
2023-05-14T05:04:25.082Z,44.0964
2023-05-14T05:05:26.698Z,43.6746
2023-05-14T05:06:28.317Z,42.6537
2023-05-14T05:07:30.073Z,42.1888
2023-05-14T05:08:31.700Z,42.3497
2023-05-14T05:09:33.275Z,41.8324
2023-05-14T05:10:34.936Z,41.6171
2023-05-14T05:11:36.619Z,40.9885
2023-05-14T05:12:39.180Z,41.2438
2023-05-14T05:13:39.894Z,40.9783
2023-05-14T05:14:41.436Z,41.1488
2023-05-14T05:15:43.535Z,40.8067
2023-05-14T05:16:45.655Z,40.3631
2023-05-14T05:17:46.436Z,40.0604
2023-05-14T05:18:48.060Z,40.1975
2023-05-14T05:19:49.660Z,40.6741
2023-05-14T05:20:51.279Z,40.4822
2023-05-14T05:21:52.927Z,40.4046
2023-05-14T05:22:54.615Z,39.5469
2023-05-14T05:23:56.272Z,39.9156
2023-05-14T05:24:57.845Z,40.1897
2023-05-14T05:25:59.549Z,40.3903
2023-05-14T05:27:01.249Z,40.0508
2023-05-14T05:28:02.839Z,39.9639
2023-05-14T05:29:04.465Z,39.2388
2023-05-14T05:30:06.233Z,39.8341
2023-05-14T05:31:07.857Z,39.7748
2023-05-14T05:32:09.436Z,39.8963
2023-05-14T05:33:11.266Z,39.8560
2023-05-14T05:34:12.726Z,39.1144
2023-05-14T05:35:14.501Z,39.2793
2023-05-14T05:36:16.077Z,39.3295
2023-05-14T05:37:17.784Z,39.7159
2023-05-14T05:38:19.424Z,39.7507
2023-05-14T05:39:21.067Z,39.4976
2023-05-14T05:40:22.770Z,38.8165
2023-05-14T05:41:24.316Z,39.4120
2023-05-14T05:42:25.913Z,39.6616
2023-05-14T05:43:27.582Z,39.6396
2023-05-14T05:44:29.263Z,39.3752
2023-05-14T05:45:30.867Z,38.9346
2023-05-14T05:46:32.603Z,39.0443
2023-05-14T05:47:34.143Z,39.3727
2023-05-14T05:48:35.763Z,39.5548
2023-05-14T05:49:37.455Z,39.4196
2023-05-14T05:50:39.078Z,39.2102
2023-05-14T05:51:40.714Z,38.8016
2023-05-14T05:52:42.314Z,39.4007
2023-05-14T05:53:44.903Z,39.4246
2023-05-14T05:54:45.671Z,39.7041
2023-05-14T05:55:47.317Z,39.3036
2023-05-14T05:56:48.888Z,39.4838
2023-05-14T05:57:50.602Z,39.0012
2023-05-14T05:58:52.949Z,39.7219
2023-05-14T05:59:54.911Z,39.5210
2023-05-14T06:00:55.468Z,39.7405
2023-05-14T06:01:57.194Z,39.4250
2023-05-14T06:02:58.822Z,39.2041
2023-05-14T06:04:00.512Z,39.5415
2023-05-14T06:05:02.214Z,39.6537
2023-05-14T06:06:03.734Z,40.0351
2023-05-14T06:07:05.651Z,39.9003
2023-05-14T06:08:07.028Z,39.7825
2023-05-14T06:09:08.686Z,39.2345
2023-05-14T06:10:10.358Z,39.9494
2023-05-14T06:11:11.894Z,39.8706
2023-05-14T06:12:13.624Z,39.9036
2023-05-14T06:13:15.229Z,39.8380
2023-05-14T06:14:16.937Z,39.7905
2023-05-14T06:15:18.917Z,39.4296
2023-05-14T06:16:20.199Z,39.7949
2023-05-14T06:17:21.811Z,39.7325
2023-05-14T06:18:23.485Z,40.0880
2023-05-14T06:19:25.145Z,39.7999
2023-05-14T06:20:26.906Z,39.6596
2023-05-14T06:21:28.408Z,39.1301
2023-05-14T06:22:30.041Z,39.7311
2023-05-14T06:23:31.641Z,39.6943
2023-05-14T06:24:33.448Z,39.8509
2023-05-14T06:25:34.976Z,39.5846
2023-05-14T06:26:36.632Z,39.5329
2023-05-14T06:27:38.246Z,39.1437
2023-05-14T06:28:39.992Z,39.7589
2023-05-14T06:29:41.563Z,39.7981
2023-05-14T06:30:43.283Z,39.9173
2023-05-14T06:31:44.898Z,39.6076
2023-05-14T06:32:46.593Z,39.3078
2023-05-14T06:33:48.112Z,39.4159
2023-05-14T06:34:49.883Z,39.2447
2023-05-14T06:35:51.446Z,39.3088
2023-05-14T06:36:53.103Z,39.4846
2023-05-14T06:37:54.803Z,39.2503
2023-05-14T06:38:56.368Z,38.9411
2023-05-14T06:39:58.172Z,39.0987
2023-05-14T06:40:59.707Z,39.5277
2023-05-14T06:42:01.367Z,39.5444
2023-05-14T06:43:02.987Z,39.8604
2023-05-14T06:44:04.603Z,39.4145
2023-05-14T06:45:06.256Z,38.9672
2023-05-14T06:46:08.426Z,39.6556
2023-05-14T06:47:09.615Z,39.6069
2023-05-14T06:48:11.235Z,39.8122
2023-05-14T06:49:12.852Z,39.8286
2023-05-14T06:50:14.561Z,39.5666
2023-05-14T06:51:16.901Z,39.1989
2023-05-14T06:52:17.766Z,39.7699
2023-05-14T06:53:19.419Z,39.9007
2023-05-14T06:54:21.068Z,39.7612
2023-05-14T06:55:22.700Z,40.1809
2023-05-14T06:56:24.405Z,40.1737
2023-05-14T06:57:25.943Z,39.6278
2023-05-14T06:58:27.627Z,39.3558
2023-05-14T06:59:29.216Z,39.9435
2023-05-14T07:00:30.980Z,39.8520
2023-05-14T07:01:32.532Z,39.9877
2023-05-14T07:02:34.158Z,40.0360
2023-05-14T07:03:36.301Z,39.7117
2023-05-14T07:04:37.469Z,39.5061
2023-05-14T07:05:39.048Z,40.2229
2023-05-14T07:06:40.801Z,40.2284
2023-05-14T07:07:42.356Z,40.2681
2023-05-14T07:08:44.051Z,39.6739
2023-05-14T07:09:45.630Z,39.3737
2023-05-14T07:10:47.385Z,39.9589
2023-05-14T07:11:49.480Z,39.8448
2023-05-14T07:12:50.616Z,39.7927
2023-05-14T07:13:52.266Z,39.9301
2023-05-14T07:14:53.933Z,39.4596
2023-05-14T07:15:55.533Z,38.9905
2023-05-14T07:16:57.245Z,39.7804
2023-05-14T07:17:58.859Z,39.3410
2023-05-14T07:19:00.558Z,39.8176
2023-05-14T07:20:02.134Z,40.0476
2023-05-14T07:21:03.801Z,39.4778
2023-05-14T07:22:05.414Z,39.3194
2023-05-14T07:23:07.050Z,39.9693
2023-05-14T07:24:08.716Z,39.7280
2023-05-14T07:25:10.344Z,40.3999
2023-05-14T07:26:12.015Z,40.3232
2023-05-14T07:27:13.615Z,39.7078
2023-05-14T07:28:15.254Z,39.6757
2023-05-14T07:29:16.983Z,40.4492
2023-05-14T07:30:18.533Z,40.3399
2023-05-14T07:31:20.309Z,40.4620
2023-05-14T07:32:21.852Z,40.4054
2023-05-14T07:33:23.509Z,39.7953
2023-05-14T07:34:25.148Z,39.6410
2023-05-14T07:35:26.747Z,40.1657
2023-05-14T07:36:28.426Z,40.0700
2023-05-14T07:37:30.109Z,40.3839
2023-05-14T07:38:31.720Z,40.2848
2023-05-14T07:39:33.345Z,39.6362
2023-05-14T07:40:34.980Z,40.1223
2023-05-14T07:41:37.333Z,40.3052
2023-05-14T07:42:38.263Z,40.5961
2023-05-14T07:43:39.949Z,41.0652
2023-05-14T07:44:41.616Z,40.7100
2023-05-14T07:45:43.214Z,40.2891
2023-05-14T07:46:44.928Z,40.7342
2023-05-14T07:47:46.534Z,40.4339
2023-05-14T07:48:48.126Z,40.4283
2023-05-14T07:49:49.778Z,40.4905
2023-05-14T07:50:51.444Z,40.6077
2023-05-14T07:51:53.843Z,40.5144
2023-05-14T07:52:54.813Z,40.5032
2023-05-14T07:53:56.512Z,40.4137
2023-05-14T07:54:58.279Z,40.8582
2023-05-14T07:55:59.770Z,40.9954
2023-05-14T07:57:01.511Z,40.6532
2023-05-14T07:58:03.574Z,40.4893
2023-05-14T07:59:04.751Z,40.6941
2023-05-14T08:00:06.545Z,40.2951
2023-05-14T08:01:09.078Z,40.4788
2023-05-14T08:02:09.711Z,40.7836
2023-05-14T08:03:11.452Z,40.4998
2023-05-14T08:04:13.159Z,40.3101
2023-05-14T08:05:14.608Z,41.0517
2023-05-14T08:06:16.273Z,40.6639
2023-05-14T08:07:17.906Z,40.6160
2023-05-14T08:08:19.516Z,40.8390
2023-05-14T08:09:21.210Z,40.2110
2023-05-14T08:10:24.025Z,40.1726
2023-05-14T08:11:24.420Z,40.5410
2023-05-14T08:12:27.094Z,40.7216
2023-05-14T08:13:27.722Z,41.4544
2023-05-14T08:14:29.632Z,42.5408
2023-05-14T08:15:31.023Z,42.5107
2023-05-14T08:16:32.785Z,42.6804
2023-05-14T08:17:34.363Z,43.4034
2023-05-14T08:18:36.040Z,44.0405
2023-05-14T08:19:38.561Z,45.4625
2023-05-14T08:20:39.294Z,45.5721
2023-05-14T08:21:41.052Z,45.0976
2023-05-14T08:22:42.685Z,45.0976
2023-05-14T08:23:44.552Z,45.2496
2023-05-14T08:24:45.926Z,46.1565
2023-05-14T08:25:47.519Z,47.0262
2023-05-14T08:26:49.264Z,47.4900
2023-05-14T08:27:50.823Z,45.9393
2023-05-14T08:28:52.488Z,45.8871
2023-05-14T08:29:54.056Z,46.3554
2023-05-14T08:30:55.759Z,47.1282
2023-05-14T08:31:57.610Z,47.5633
2023-05-14T08:32:59.716Z,47.3307
2023-05-14T08:34:00.687Z,46.3096
2023-05-14T08:35:02.278Z,46.5156
2023-05-14T08:36:03.996Z,47.2818
2023-05-14T08:37:05.640Z,48.0803
2023-05-14T08:38:08.266Z,48.4569
2023-05-14T08:39:09.029Z,47.3357
2023-05-14T08:40:10.523Z,47.0045
2023-05-14T08:41:12.317Z,47.1265
2023-05-14T08:42:13.858Z,48.0191
2023-05-14T08:43:15.580Z,48.9016
2023-05-14T08:44:17.155Z,48.8232
2023-05-14T08:45:18.864Z,47.2048
2023-05-14T08:46:20.422Z,47.1255
2023-05-14T08:47:22.123Z,47.3863
2023-05-14T08:48:23.774Z,48.6630
2023-05-14T08:49:25.366Z,49.7598
2023-05-14T08:50:27.455Z,48.3540
2023-05-14T08:51:28.636Z,46.6056
2023-05-14T08:52:30.283Z,46.4537
2023-05-14T08:53:31.953Z,47.4559
2023-05-14T08:54:33.619Z,48.7521
2023-05-14T08:55:35.213Z,48.4876
2023-05-14T08:56:36.830Z,47.2095
2023-05-14T08:57:38.542Z,46.4961
2023-05-14T08:58:40.200Z,46.8491
2023-05-14T08:59:41.894Z,48.4062
2023-05-14T09:00:43.459Z,49.2656
2023-05-14T09:01:45.146Z,49.0645
2023-05-14T09:02:46.805Z,46.9586
2023-05-14T09:03:48.351Z,46.6248
2023-05-14T09:04:49.979Z,47.5602
2023-05-14T09:05:51.807Z,48.9059
2023-05-14T09:06:53.305Z,49.6384
2023-05-14T09:07:55.009Z,49.1084
2023-05-14T09:08:56.586Z,47.0986
2023-05-14T09:09:58.322Z,47.0576
2023-05-14T09:11:00.868Z,48.2186
2023-05-14T09:12:01.583Z,49.8776
2023-05-14T09:13:03.215Z,50.4344
2023-05-14T09:14:04.775Z,49.6857
2023-05-14T09:15:07.250Z,47.8491
2023-05-14T09:16:08.156Z,47.9640
2023-05-14T09:17:09.828Z,48.8579
2023-05-14T09:18:11.372Z,50.4618
2023-05-14T09:19:13.193Z,50.3873
2023-05-14T09:20:14.693Z,49.5089
2023-05-14T09:21:16.491Z,47.6706
2023-05-14T09:22:17.985Z,47.8455
2023-05-14T09:23:19.710Z,48.9782
2023-05-14T09:24:21.381Z,50.2316
2023-05-14T09:25:24.034Z,49.9842
2023-05-14T09:26:24.520Z,50.6753
2023-05-14T09:27:27.244Z,47.9729
2023-05-14T09:28:27.844Z,48.5328
2023-05-14T09:29:29.494Z,49.9535
2023-05-14T09:30:32.522Z,51.1240
2023-05-14T09:31:32.746Z,50.6473
2023-05-14T09:32:35.552Z,50.0992
2023-05-14T09:33:36.116Z,48.8757
2023-05-14T09:34:38.108Z,49.2387
2023-05-14T09:35:39.531Z,50.4250
2023-05-14T09:36:41.165Z,51.4687
2023-05-14T09:37:42.800Z,51.0250
2023-05-14T09:38:44.441Z,50.6342
2023-05-14T09:39:45.982Z,48.8419
2023-05-14T09:40:47.750Z,49.3189
2023-05-14T09:41:49.327Z,51.0585
2023-05-14T09:42:50.982Z,51.8056
2023-05-14T09:43:52.634Z,51.2594
2023-05-14T09:44:54.261Z,50.7390
2023-05-14T09:45:55.960Z,49.2110
2023-05-14T09:46:57.614Z,49.2395
2023-05-14T09:48:00.329Z,50.4093
2023-05-14T09:49:00.806Z,51.5808
2023-05-14T09:50:03.425Z,50.9229
2023-05-14T09:51:04.738Z,50.8273
2023-05-14T09:52:05.728Z,48.6359
2023-05-14T09:53:07.472Z,48.6031
2023-05-14T09:54:09.105Z,49.7326
2023-05-14T09:55:10.675Z,50.8945
2023-05-14T09:56:12.485Z,50.1298
2023-05-14T09:57:14.055Z,49.2528
2023-05-14T09:58:15.667Z,47.8676
2023-05-14T09:59:17.593Z,48.1939
2023-05-14T10:00:18.986Z,49.3269
2023-05-14T10:01:21.704Z,50.6236
2023-05-14T10:02:22.328Z,50.5018
2023-05-14T10:03:23.929Z,48.2817
2023-05-14T10:04:25.511Z,47.6822
2023-05-14T10:05:27.209Z,48.2694
2023-05-14T10:06:28.820Z,49.8890
2023-05-14T10:07:30.449Z,51.0056
2023-05-14T10:08:32.639Z,49.7649
2023-05-14T10:09:33.784Z,47.4986
2023-05-14T10:10:35.385Z,47.0575
2023-05-14T10:11:38.101Z,47.1950
2023-05-14T10:12:38.689Z,48.8145
2023-05-14T10:13:40.282Z,49.4756
2023-05-14T10:14:42.026Z,48.4073
2023-05-14T10:15:43.612Z,45.9326
2023-05-14T10:16:45.274Z,45.4938
2023-05-14T10:17:47.085Z,46.6572
2023-05-14T10:18:48.661Z,48.6638
2023-05-14T10:19:50.223Z,49.1256
2023-05-14T10:20:51.799Z,48.9224
2023-05-14T10:21:53.521Z,46.5037
2023-05-14T10:22:55.138Z,46.6377
2023-05-14T10:23:56.973Z,47.8816
2023-05-14T10:24:58.540Z,50.1819
2023-05-14T10:26:00.201Z,49.9953
2023-05-14T10:27:01.774Z,50.0012
2023-05-14T10:28:03.385Z,46.8832
2023-05-14T10:29:05.026Z,46.8025
2023-05-14T10:30:06.656Z,47.6971
2023-05-14T10:31:08.264Z,49.5724
2023-05-14T10:32:10.062Z,49.3384
2023-05-14T10:33:12.619Z,49.2961
2023-05-14T10:34:13.193Z,46.9585
2023-05-14T10:35:15.863Z,46.8427
2023-05-14T10:36:16.484Z,48.3260
2023-05-14T10:37:18.134Z,49.7206
2023-05-14T10:38:19.712Z,49.3979
2023-05-14T10:39:21.444Z,48.6862
2023-05-14T10:40:23.133Z,46.7861
2023-05-14T10:41:24.762Z,46.9468
2023-05-14T10:42:26.315Z,48.7692
2023-05-14T10:43:28.000Z,50.3062
2023-05-14T10:44:29.632Z,49.7026
2023-05-14T10:45:31.334Z,47.6847
2023-05-14T10:46:32.936Z,46.3776
2023-05-14T10:47:34.605Z,46.6928
2023-05-14T10:48:36.196Z,48.7353
2023-05-14T10:49:43.349Z,49.7864
2023-05-14T10:50:39.516Z,49.7597
2023-05-14T10:51:41.253Z,47.3027
2023-05-14T10:52:42.780Z,46.6711
2023-05-14T10:53:44.494Z,47.3826
2023-05-14T10:54:46.080Z,49.1852
2023-05-14T10:55:47.732Z,49.2839
2023-05-14T10:56:49.407Z,49.3321
2023-05-14T10:57:51.017Z,46.8818
2023-05-14T10:58:52.664Z,46.3921
2023-05-14T10:59:55.171Z,47.5113
2023-05-14T11:00:56.025Z,48.9439
2023-05-14T11:01:57.749Z,49.1631
2023-05-14T11:02:59.368Z,48.9326
2023-05-14T11:04:01.017Z,46.1349
2023-05-14T11:05:04.440Z,46.3496
2023-05-14T11:06:04.235Z,47.3305
2023-05-14T11:07:05.905Z,49.5006
2023-05-14T11:08:07.574Z,49.8549
2023-05-14T11:09:09.131Z,48.6623
2023-05-14T11:10:10.859Z,46.8183
2023-05-14T11:11:12.508Z,47.2037
2023-05-14T11:12:14.065Z,48.4141
2023-05-14T11:13:15.681Z,49.8705
2023-05-14T11:14:17.434Z,50.1185
2023-05-14T11:15:19.029Z,49.2744
2023-05-14T11:16:23.760Z,47.6295
2023-05-14T11:17:22.302Z,47.4370
2023-05-14T11:18:23.958Z,48.8848
2023-05-14T11:19:25.627Z,50.7689
2023-05-14T11:20:27.346Z,51.2009
2023-05-14T11:21:29.007Z,50.3242
2023-05-14T11:22:30.552Z,48.5146
2023-05-14T11:23:32.168Z,48.1915
2023-05-14T11:24:33.832Z,49.2535
2023-05-14T11:25:35.547Z,51.3925
2023-05-14T11:26:38.122Z,51.8322
2023-05-14T11:27:38.762Z,50.3580
2023-05-14T11:28:40.562Z,48.9187
2023-05-14T11:29:42.090Z,48.2886
2023-05-14T11:30:43.712Z,48.7400
2023-05-14T11:31:45.475Z,50.2251
2023-05-14T11:32:47.001Z,50.9183
2023-05-14T11:33:48.641Z,49.9298
2023-05-14T11:34:50.573Z,48.8335
2023-05-14T11:35:51.964Z,48.0625
2023-05-14T11:36:53.547Z,48.3593
2023-05-14T11:37:55.204Z,49.2819
2023-05-14T11:38:56.824Z,51.1408
2023-05-14T11:39:58.558Z,50.7781
2023-05-14T11:41:00.160Z,48.7064
2023-05-14T11:42:01.739Z,47.8426
2023-05-14T11:43:03.425Z,47.9497
2023-05-14T11:44:05.964Z,48.6488
2023-05-14T11:45:06.762Z,49.7412
2023-05-14T11:46:08.436Z,50.0791
2023-05-14T11:47:10.059Z,48.2202
2023-05-14T11:48:11.649Z,47.5647
2023-05-14T11:49:13.308Z,47.6755
2023-05-14T11:50:14.906Z,48.2574
2023-05-14T11:51:16.717Z,49.3297
2023-05-14T11:52:18.209Z,49.5120
2023-05-14T11:53:19.873Z,47.4226
2023-05-14T11:54:21.593Z,47.1067
2023-05-14T11:55:23.207Z,47.1506
2023-05-14T11:56:24.820Z,47.7358
2023-05-14T11:57:26.503Z,49.0995
2023-05-14T11:58:28.048Z,48.8744
2023-05-14T11:59:29.663Z,46.6501
2023-05-14T12:00:31.317Z,46.1668
2023-05-14T12:01:33.016Z,46.6262
2023-05-14T12:02:34.712Z,48.2461
2023-05-14T12:03:36.386Z,50.3114
2023-05-14T12:04:37.939Z,50.4020
2023-05-14T12:05:40.039Z,49.0536
2023-05-14T12:06:41.189Z,48.7483
2023-05-14T12:07:42.820Z,49.0552
2023-05-14T12:08:45.483Z,50.0109
2023-05-14T12:09:46.077Z,52.3520
2023-05-14T12:10:47.753Z,51.4153
2023-05-14T12:11:49.412Z,50.3126
2023-05-14T12:12:51.064Z,49.2056
2023-05-14T12:13:52.643Z,49.5539
2023-05-14T12:14:54.307Z,50.1492
2023-05-14T12:15:56.015Z,52.0680
2023-05-14T12:16:57.653Z,51.8478
2023-05-14T12:17:59.276Z,50.5897
2023-05-14T12:19:01.560Z,49.3501
2023-05-14T12:20:02.545Z,49.2761
2023-05-14T12:21:04.230Z,49.5472
2023-05-14T12:22:06.045Z,50.8774
2023-05-14T12:23:07.658Z,51.3334
2023-05-14T12:24:09.229Z,50.4157
2023-05-14T12:25:10.924Z,48.7920